createdAt,value
2022-09-30T00:01:59.274Z,66.70
2022-09-30T00:04:44.625Z,66.82
2022-09-30T00:07:30.051Z,66.85
2022-09-30T00:10:17.320Z,66.71
2022-09-30T00:13:02.775Z,66.89
2022-09-30T00:15:48.154Z,66.83
2022-09-30T00:18:33.481Z,66.88
2022-09-30T00:21:18.849Z,66.75
2022-09-30T00:24:05.611Z,66.70
2022-09-30T00:26:50.798Z,66.89
2022-09-30T00:29:36.182Z,66.75
2022-09-30T00:32:21.422Z,66.86
2022-09-30T00:35:07.086Z,66.88
2022-09-30T00:37:52.645Z,66.91
2022-09-30T00:40:39.283Z,66.76
2022-09-30T00:43:46.567Z,66.75
2022-09-30T00:46:43.649Z,66.68
2022-09-30T00:49:30.427Z,66.86
2022-09-30T00:52:15.912Z,66.81
2022-09-30T00:55:04.678Z,66.77
2022-09-30T00:57:50.445Z,66.78
2022-09-30T01:00:37.052Z,66.53
2022-09-30T01:03:23.162Z,66.58
2022-09-30T01:06:08.918Z,66.85
2022-09-30T01:08:55.323Z,66.64
2022-09-30T01:11:40.343Z,66.56
2022-09-30T01:14:28.464Z,66.62
2022-09-30T01:17:25.543Z,66.64
2022-09-30T01:20:21.662Z,66.62
2022-09-30T01:23:35.877Z,66.63
2022-09-30T01:26:57.740Z,66.63
2022-09-30T01:30:06.367Z,66.74
2022-09-30T01:33:13.153Z,66.72
2022-09-30T01:36:22.530Z,66.70
2022-09-30T01:39:17.784Z,66.72
2022-09-30T01:42:36.747Z,66.60
2022-09-30T01:45:42.814Z,66.70
2022-09-30T01:48:51.377Z,66.60
2022-09-30T01:52:05.733Z,66.58
2022-09-30T01:55:04.046Z,66.53
2022-09-30T01:58:14.437Z,66.67
2022-09-30T02:01:06.311Z,66.50
2022-09-30T02:03:57.008Z,66.54
2022-09-30T02:06:47.958Z,66.76
2022-09-30T02:09:40.998Z,66.50
2022-09-30T02:12:31.644Z,66.75
2022-09-30T02:15:27.992Z,66.53
2022-09-30T02:18:20.605Z,66.53
2022-09-30T02:21:09.043Z,66.57
2022-09-30T02:24:02.578Z,66.70
2022-09-30T02:26:49.846Z,66.59
2022-09-30T02:29:39.635Z,66.50
2022-09-30T02:32:30.027Z,66.61
2022-09-30T02:35:36.926Z,66.52
2022-09-30T02:38:30.828Z,66.81
2022-09-30T02:41:23.519Z,66.68
2022-09-30T02:44:09.674Z,67.17
2022-09-30T02:47:17.125Z,66.56
2022-09-30T02:50:12.276Z,66.79
2022-09-30T02:53:36.366Z,66.91
2022-09-30T02:56:29.653Z,66.97
2022-09-30T02:59:14.907Z,66.91
2022-09-30T03:02:00.141Z,66.77
2022-09-30T03:04:46.744Z,66.57
2022-09-30T03:07:32.438Z,66.65
2022-09-30T03:10:18.107Z,66.36
2022-09-30T03:13:26.308Z,66.33
2022-09-30T03:16:26.921Z,65.96
2022-09-30T03:19:42.358Z,65.75
2022-09-30T03:22:43.682Z,65.10
2022-09-30T03:25:47.152Z,64.98
2022-09-30T03:28:57.393Z,65.32
2022-09-30T03:31:43.121Z,65.26
2022-09-30T03:34:34.736Z,65.27
2022-09-30T03:37:55.478Z,65.10
2022-09-30T03:40:43.612Z,64.86
2022-09-30T03:43:36.664Z,64.88
2022-09-30T03:46:21.793Z,64.81
2022-09-30T03:49:13.358Z,64.91
2022-09-30T03:52:00.160Z,64.61
2022-09-30T03:54:53.271Z,64.60
2022-09-30T03:57:38.523Z,64.98
2022-09-30T04:00:24.022Z,64.89
2022-09-30T04:03:09.311Z,64.99
2022-09-30T04:05:54.828Z,65.04
2022-09-30T04:08:40.972Z,65.06
2022-09-30T04:11:26.415Z,64.91
2022-09-30T04:14:12.555Z,64.83
2022-09-30T04:16:58.207Z,64.72
2022-09-30T04:19:44.867Z,64.71
2022-09-30T04:22:30.483Z,64.67
2022-09-30T04:25:16.058Z,64.64
2022-09-30T04:28:02.002Z,64.91
2022-09-30T04:30:47.614Z,64.93
2022-09-30T04:33:33.374Z,64.96
2022-09-30T04:36:18.951Z,64.29
2022-09-30T04:39:05.996Z,64.77
2022-09-30T04:41:56.062Z,64.74
2022-09-30T04:44:53.448Z,64.91
2022-09-30T04:47:44.304Z,63.88
2022-09-30T04:50:29.777Z,63.66
2022-09-30T04:53:16.058Z,63.56
2022-09-30T04:56:02.341Z,63.52
2022-09-30T04:58:47.531Z,63.82
2022-09-30T05:01:33.844Z,63.73
2022-09-30T05:04:19.418Z,63.93
2022-09-30T05:07:08.862Z,63.66
2022-09-30T05:09:54.167Z,63.64
2022-09-30T05:12:41.095Z,63.50
2022-09-30T05:15:27.002Z,63.70
2022-09-30T05:18:12.576Z,63.85
2022-09-30T05:20:58.431Z,63.72
2022-09-30T05:23:43.953Z,63.98
2022-09-30T05:26:29.581Z,64.13
2022-09-30T05:29:14.790Z,64.32
2022-09-30T05:32:00.243Z,64.09
2022-09-30T05:34:47.344Z,64.22
2022-09-30T05:37:34.139Z,64.21
2022-09-30T05:40:19.747Z,64.17
2022-09-30T05:43:06.106Z,64.17
2022-09-30T05:45:56.108Z,64.22
2022-09-30T05:48:41.499Z,64.04
2022-09-30T05:51:26.951Z,64.24
2022-09-30T05:54:12.223Z,64.14
2022-09-30T05:56:57.583Z,64.31
2022-09-30T05:59:43.242Z,64.16
2022-09-30T06:02:28.546Z,64.24
2022-09-30T06:05:14.686Z,64.34
2022-09-30T06:08:00.193Z,64.27
2022-09-30T06:10:45.698Z,64.27
2022-09-30T06:13:31.115Z,64.29
2022-09-30T06:16:18.494Z,64.38
2022-09-30T06:19:04.229Z,64.47
2022-09-30T06:21:49.535Z,64.08
2022-09-30T06:24:35.425Z,64.37
2022-09-30T06:27:22.107Z,64.50
2022-09-30T06:30:08.281Z,64.21
2022-09-30T06:32:57.082Z,64.32
2022-09-30T06:35:43.183Z,64.35
2022-09-30T06:38:28.774Z,64.45
2022-09-30T06:41:14.280Z,64.46
2022-09-30T06:44:08.009Z,64.31
2022-09-30T06:46:54.317Z,64.25
2022-09-30T06:49:48.002Z,64.44
2022-09-30T06:52:34.106Z,64.39
2022-09-30T06:55:19.328Z,64.42
2022-09-30T06:58:11.350Z,64.52
2022-09-30T07:01:06.027Z,64.54
2022-09-30T07:03:58.173Z,64.44
2022-09-30T07:06:43.902Z,64.40
2022-09-30T07:09:29.587Z,64.42
2022-09-30T07:12:14.988Z,64.51
2022-09-30T07:15:00.608Z,64.48
2022-09-30T07:17:53.502Z,64.62
2022-09-30T07:20:38.909Z,64.65
2022-09-30T07:23:27.105Z,64.67
2022-09-30T07:26:13.288Z,64.41
2022-09-30T07:29:00.297Z,64.58
2022-09-30T07:31:46.287Z,64.39
2022-09-30T07:34:31.761Z,64.53
2022-09-30T07:37:19.007Z,64.47
2022-09-30T07:40:07.565Z,64.60
2022-09-30T07:42:52.953Z,64.60
2022-09-30T07:45:38.352Z,64.51
2022-09-30T07:48:42.068Z,64.59
2022-09-30T07:51:31.265Z,64.70
2022-09-30T07:54:19.736Z,64.58
2022-09-30T07:57:10.203Z,64.67
2022-09-30T07:59:56.575Z,64.74
2022-09-30T08:02:42.158Z,64.48
2022-09-30T08:05:27.324Z,64.41
2022-09-30T08:08:13.518Z,64.49
2022-09-30T08:11:00.352Z,64.76
2022-09-30T08:13:49.764Z,64.59
2022-09-30T08:16:35.425Z,64.71
2022-09-30T08:19:22.528Z,64.65
2022-09-30T08:22:10.578Z,64.48
2022-09-30T08:24:56.292Z,64.60
2022-09-30T08:27:41.526Z,64.53
2022-09-30T08:30:26.835Z,64.57
2022-09-30T08:33:12.511Z,64.47
2022-09-30T08:36:02.036Z,64.65
2022-09-30T08:38:47.756Z,64.57
2022-09-30T08:47:15.327Z,64.49
2022-09-30T08:50:03.400Z,64.52
2022-09-30T08:52:51.478Z,64.44
2022-09-30T08:55:42.406Z,64.52
2022-09-30T08:58:32.903Z,64.50
2022-09-30T09:01:33.201Z,64.50
2022-09-30T09:04:19.160Z,64.78
2022-09-30T09:07:23.065Z,64.59
2022-09-30T09:10:20.875Z,64.55
2022-09-30T09:13:34.083Z,64.53
2022-09-30T09:16:41.195Z,64.62
2022-09-30T09:19:36.671Z,64.65
2022-09-30T09:22:24.883Z,64.79
2022-09-30T09:25:15.822Z,64.71
2022-09-30T09:28:06.258Z,64.49
2022-09-30T09:30:57.546Z,64.67
2022-09-30T09:33:43.728Z,64.66
2022-09-30T09:36:44.060Z,64.48
2022-09-30T09:40:12.416Z,64.66
2022-09-30T09:43:10.166Z,64.68
2022-09-30T09:46:08.385Z,64.66
2022-09-30T09:49:23.469Z,64.62
2022-09-30T09:52:12.511Z,64.55
2022-09-30T09:54:57.941Z,64.73
2022-09-30T09:57:43.319Z,64.52
2022-09-30T10:00:46.902Z,64.52
2022-09-30T10:03:33.936Z,64.44
2022-09-30T10:06:19.433Z,64.59
2022-09-30T10:09:04.690Z,64.37
2022-09-30T10:11:49.852Z,64.75
2022-09-30T10:14:46.402Z,64.63
2022-09-30T10:17:35.456Z,64.59
2022-09-30T10:20:33.176Z,64.55
2022-09-30T10:23:27.966Z,64.72
2022-09-30T10:26:21.943Z,64.40
2022-09-30T10:29:29.657Z,64.85
2022-09-30T10:32:15.479Z,64.77
2022-09-30T10:35:11.813Z,64.67
2022-09-30T10:38:00.711Z,64.63
2022-09-30T10:40:50.891Z,64.86
2022-09-30T10:43:49.762Z,64.69
2022-09-30T10:46:40.332Z,64.83
2022-09-30T10:49:36.465Z,64.75
2022-09-30T10:52:32.491Z,64.89
2022-09-30T10:55:20.945Z,64.88
2022-09-30T10:58:29.783Z,64.84
2022-09-30T11:01:29.079Z,64.87
2022-09-30T11:05:01.515Z,64.86
2022-09-30T11:08:25.236Z,65.12
2022-09-30T11:11:27.537Z,64.91
2022-09-30T11:14:35.845Z,64.96
2022-09-30T11:17:29.662Z,64.92
2022-09-30T11:20:53.545Z,64.94
2022-09-30T11:23:46.756Z,65.02
2022-09-30T11:26:40.133Z,64.94
2022-09-30T11:29:50.484Z,65.08
2022-09-30T11:33:03.160Z,65.00
2022-09-30T11:36:05.694Z,64.96
2022-09-30T11:39:23.840Z,65.02
2022-09-30T11:42:18.518Z,65.02
2022-09-30T11:45:21.513Z,65.07
2022-09-30T11:48:29.281Z,65.09
2022-09-30T11:51:37.021Z,65.06
2022-09-30T11:54:41.171Z,64.96
2022-09-30T11:57:41.175Z,65.07
2022-09-30T12:00:28.557Z,64.95
2022-09-30T12:03:22.941Z,64.91
2022-09-30T12:06:18.475Z,64.91
2022-09-30T12:09:25.319Z,64.86
2022-09-30T12:12:16.836Z,65.02
2022-09-30T12:15:07.562Z,65.00
2022-09-30T12:18:00.050Z,64.97
2022-09-30T12:20:55.695Z,65.05
2022-09-30T12:23:48.856Z,64.05
2022-09-30T12:26:34.399Z,63.55
2022-09-30T12:29:56.348Z,64.77
2022-09-30T12:33:23.840Z,64.74
2022-09-30T12:36:40.210Z,65.16
2022-09-30T12:39:33.627Z,65.02
2022-09-30T12:42:33.232Z,64.90
2022-09-30T12:45:45.787Z,64.66
2022-09-30T12:48:55.929Z,63.89
2022-09-30T12:51:49.093Z,64.16
2022-09-30T12:54:43.014Z,64.62
2022-09-30T12:57:34.053Z,64.50
2022-09-30T13:00:25.740Z,64.87
2022-09-30T13:03:18.416Z,64.48
2022-09-30T13:06:06.588Z,64.99
2022-09-30T13:09:33.836Z,64.65
2022-09-30T13:12:39.562Z,64.55
2022-09-30T13:15:31.101Z,64.14
2022-09-30T13:18:25.363Z,64.27
2022-09-30T13:21:14.254Z,63.99
2022-09-30T13:24:00.894Z,64.12
2022-09-30T13:26:48.985Z,63.92
2022-09-30T13:29:36.055Z,63.89
2022-09-30T13:32:39.922Z,63.75
2022-09-30T13:35:40.616Z,64.08
2022-09-30T13:38:46.432Z,62.77
2022-09-30T13:41:34.860Z,63.27
2022-09-30T13:44:25.661Z,63.27
2022-09-30T13:47:21.934Z,63.43
2022-09-30T13:50:19.096Z,63.57
2022-09-30T13:53:16.070Z,63.55
2022-09-30T13:56:07.443Z,63.64
2022-09-30T13:59:20.457Z,63.64
2022-09-30T14:02:22.137Z,63.62
2022-09-30T14:05:35.211Z,63.75
2022-09-30T14:08:30.257Z,63.76
2022-09-30T14:11:40.442Z,63.65
2022-09-30T14:14:55.848Z,63.84
2022-09-30T14:18:23.236Z,63.80
2022-09-30T14:21:31.568Z,63.72
2022-09-30T14:24:24.051Z,63.65
2022-09-30T14:27:37.303Z,63.79
2022-09-30T14:30:24.678Z,63.80
2022-09-30T14:33:26.203Z,63.62
2022-09-30T14:36:15.969Z,63.60
2022-09-30T14:39:02.674Z,63.73
2022-09-30T14:41:57.101Z,63.66
2022-09-30T14:44:42.571Z,63.79
2022-09-30T14:47:28.151Z,63.79
2022-09-30T14:50:20.667Z,63.62
2022-09-30T14:53:06.740Z,63.86
2022-09-30T14:55:52.834Z,63.72
2022-09-30T14:58:40.766Z,63.74
2022-09-30T15:01:33.904Z,63.83
2022-09-30T15:04:25.443Z,63.83
2022-09-30T15:07:12.110Z,63.71
2022-09-30T15:10:01.959Z,63.75
2022-09-30T15:12:50.364Z,63.77
2022-09-30T15:15:37.402Z,63.67
2022-09-30T15:18:31.258Z,63.67
2022-09-30T15:21:17.352Z,63.87
2022-09-30T15:24:03.130Z,63.89
2022-09-30T15:26:49.771Z,63.98
2022-09-30T15:29:35.243Z,63.95
2022-09-30T15:32:24.484Z,63.85
2022-09-30T15:35:17.067Z,63.96
2022-09-30T15:38:15.497Z,63.93
2022-09-30T15:41:10.310Z,63.81
2022-09-30T15:44:00.354Z,64.02
2022-09-30T15:47:07.557Z,64.08
2022-09-30T15:49:53.516Z,64.12
2022-09-30T15:52:42.657Z,64.07
2022-09-30T15:55:38.774Z,63.99
2022-09-30T15:58:38.151Z,64.03
2022-09-30T16:01:24.146Z,64.11
2022-09-30T16:04:15.601Z,64.15
2022-09-30T16:07:10.508Z,64.11
2022-09-30T16:10:00.385Z,64.08
2022-09-30T16:12:49.437Z,64.29
2022-09-30T16:15:41.487Z,64.20
2022-09-30T16:18:32.740Z,64.24
2022-09-30T16:21:44.459Z,64.19
2022-09-30T16:24:32.159Z,64.36
2022-09-30T16:27:29.274Z,64.24
2022-09-30T16:30:18.485Z,64.39
2022-09-30T16:33:06.301Z,64.25
2022-09-30T16:35:51.603Z,64.38
2022-09-30T16:38:37.092Z,64.43
2022-09-30T16:41:22.240Z,64.48
2022-09-30T16:44:07.589Z,64.32
2022-09-30T16:46:52.855Z,64.32
2022-09-30T16:49:38.260Z,64.58
2022-09-30T16:52:23.346Z,64.44
2022-09-30T16:55:08.961Z,64.53
2022-09-30T16:58:01.949Z,64.47
2022-09-30T17:00:47.508Z,64.42
2022-09-30T17:03:34.101Z,64.45
2022-09-30T17:06:21.781Z,64.37
2022-09-30T17:09:07.407Z,64.50
2022-09-30T17:11:53.299Z,64.43
2022-09-30T17:14:39.937Z,64.53
2022-09-30T17:17:25.310Z,64.61
2022-09-30T17:20:10.860Z,64.59
2022-09-30T17:22:56.527Z,64.46
2022-09-30T17:25:43.095Z,64.59
2022-09-30T17:28:28.479Z,64.46
2022-09-30T17:31:13.805Z,64.44
2022-09-30T17:33:59.093Z,64.53
2022-09-30T17:36:44.383Z,64.70
2022-09-30T17:39:29.630Z,64.69
2022-09-30T17:42:34.428Z,64.53
2022-09-30T17:45:19.558Z,64.74
2022-09-30T17:48:07.840Z,64.58
2022-09-30T17:50:56.345Z,64.55
2022-09-30T17:53:41.919Z,64.80
2022-09-30T17:56:28.930Z,64.76
2022-09-30T17:59:14.129Z,64.83
2022-09-30T18:01:59.341Z,64.87
2022-09-30T18:04:44.761Z,64.83
2022-09-30T18:07:30.980Z,64.79
2022-09-30T18:10:18.430Z,64.70
2022-09-30T18:13:07.170Z,64.84
2022-09-30T18:15:53.134Z,64.73
2022-09-30T18:18:38.845Z,65.02
2022-09-30T18:21:24.198Z,65.33
2022-09-30T18:24:10.511Z,65.52
2022-09-30T18:26:56.249Z,65.56
2022-09-30T18:29:41.518Z,65.78
2022-09-30T18:32:28.356Z,65.16
2022-09-30T18:35:14.341Z,65.34
2022-09-30T18:38:00.113Z,65.67
2022-09-30T18:40:46.193Z,65.22
2022-09-30T18:43:32.411Z,64.97
2022-09-30T18:46:20.332Z,65.18
2022-09-30T18:49:05.957Z,65.20
2022-09-30T18:51:56.106Z,65.30
2022-09-30T18:54:41.625Z,65.07
2022-09-30T18:57:27.285Z,65.10
2022-09-30T19:00:12.514Z,64.68
2022-09-30T19:02:58.158Z,64.88
2022-09-30T19:05:43.698Z,64.65
2022-09-30T19:08:29.384Z,64.66
2022-09-30T19:11:16.402Z,64.76
2022-09-30T19:14:05.811Z,64.65
2022-09-30T19:16:51.960Z,64.70
2022-09-30T19:19:46.032Z,64.50
2022-09-30T19:22:31.418Z,64.46
2022-09-30T19:25:17.219Z,64.49
2022-09-30T19:28:02.735Z,64.51
2022-09-30T19:30:48.636Z,64.40
2022-09-30T19:33:42.117Z,64.39
2022-09-30T19:36:41.348Z,64.38
2022-09-30T19:39:44.109Z,64.35
2022-09-30T19:42:32.331Z,64.51
2022-09-30T19:45:24.127Z,64.43
2022-09-30T19:48:11.090Z,64.31
2022-09-30T19:51:04.767Z,64.33
2022-09-30T19:54:02.976Z,64.44
2022-09-30T19:56:51.404Z,64.58
2022-09-30T19:59:37.147Z,64.39
2022-09-30T20:02:23.296Z,64.32
2022-09-30T20:05:09.314Z,64.40
2022-09-30T20:07:54.695Z,64.35
2022-09-30T20:10:40.045Z,64.47
2022-09-30T20:13:25.450Z,64.41
2022-09-30T20:16:13.425Z,64.47
2022-09-30T20:18:58.603Z,64.33
2022-09-30T20:21:44.750Z,64.17
2022-09-30T20:24:30.039Z,64.28
2022-09-30T20:27:15.418Z,64.13
2022-09-30T20:30:00.603Z,64.21
2022-09-30T20:32:46.008Z,64.32
2022-09-30T20:35:35.566Z,64.23
2022-09-30T20:38:24.847Z,64.19
2022-09-30T20:41:10.336Z,63.89
2022-09-30T20:43:55.764Z,64.13
2022-09-30T20:46:41.970Z,64.19
2022-09-30T20:49:28.582Z,64.16
2022-09-30T20:52:15.130Z,64.06
2022-09-30T20:55:00.672Z,64.40
2022-09-30T20:57:46.414Z,64.21
2022-09-30T21:00:33.640Z,64.56
2022-09-30T21:03:18.976Z,64.70
2022-09-30T21:06:11.232Z,65.02
2022-09-30T21:08:57.540Z,65.05
2022-09-30T21:11:43.117Z,64.85
2022-09-30T21:14:28.439Z,64.80
2022-09-30T21:17:13.890Z,64.83
2022-09-30T21:19:59.255Z,64.59
2022-09-30T21:22:44.624Z,64.42
2022-09-30T21:25:32.240Z,64.20
2022-09-30T21:28:17.753Z,63.84
2022-09-30T21:31:08.178Z,63.47
2022-09-30T21:33:56.449Z,63.59
2022-09-30T21:36:41.614Z,63.46
2022-09-30T21:39:27.047Z,63.26
2022-09-30T21:42:12.152Z,63.24
2022-09-30T21:44:57.411Z,63.15
2022-09-30T21:47:42.716Z,63.03
2022-09-30T21:50:28.412Z,63.45
2022-09-30T21:53:13.955Z,63.41
2022-09-30T21:56:01.052Z,63.22
2022-09-30T21:58:48.058Z,63.26
2022-09-30T22:01:33.962Z,63.15
2022-09-30T22:04:19.747Z,62.99
2022-09-30T22:07:08.173Z,63.37
2022-09-30T22:09:53.466Z,63.33
2022-09-30T22:12:38.740Z,63.19
2022-09-30T22:15:24.343Z,63.31
2022-09-30T22:18:12.267Z,63.44
2022-09-30T22:21:03.653Z,63.24
2022-09-30T22:23:49.490Z,63.20
2022-09-30T22:26:35.825Z,63.26
2022-09-30T22:29:21.443Z,63.33
2022-09-30T22:32:06.738Z,63.37
2022-09-30T22:35:10.559Z,63.13
2022-09-30T22:38:14.360Z,63.16
2022-09-30T22:40:59.706Z,63.39
2022-09-30T22:43:45.647Z,63.22
2022-09-30T22:46:34.177Z,63.33
2022-09-30T22:49:20.383Z,63.45
2022-09-30T22:52:06.664Z,63.30
2022-09-30T22:54:52.307Z,63.45
2022-09-30T22:57:37.921Z,63.38
2022-09-30T23:00:22.950Z,63.25
2022-09-30T23:03:10.119Z,63.43
2022-09-30T23:06:05.234Z,63.31
2022-09-30T23:08:52.481Z,63.38
2022-09-30T23:11:39.289Z,63.44
2022-09-30T23:14:24.894Z,63.39
2022-09-30T23:17:10.457Z,63.25
2022-09-30T23:19:55.744Z,63.38
2022-09-30T23:22:41.021Z,63.31
2022-09-30T23:25:26.246Z,63.16
2022-09-30T23:28:11.922Z,63.42
2022-09-30T23:31:03.001Z,63.43
2022-09-30T23:33:50.766Z,63.35
2022-09-30T23:36:37.729Z,63.50
2022-09-30T23:39:23.122Z,63.23
2022-09-30T23:42:08.276Z,63.33
2022-09-30T23:44:53.417Z,63.40
2022-09-30T23:47:38.510Z,63.25
2022-09-30T23:50:24.831Z,63.54
2022-09-30T23:53:10.091Z,63.28
2022-09-30T23:56:01.421Z,63.48
2022-09-30T23:58:47.920Z,63.49
